Time;durP1;ratioP1;P1;durP2;ratioP2;P2;SDS_P1;SDS_P2;PMS_P1;PMS_P2;Temp;Humidity;BMP_temperature;BMP_pressure;BME280_temperature;BME280_humidity;BME280_pressure;Samples;Min_cycle;Max_cycle;Signal;HPM_P1;HPM_P2
2021/12/13 00:03:56;;;;;;;0.20;0.20;;;11.10;98.70;10.10;102385.00;;;;31009866;28;20065;-78
2021/12/13 00:19:06;;;;;;;0.20;0.20;;;11.10;98.30;10.10;102371.00;;;;31006941;28;20089;-78
2021/12/13 00:34:32;;;;;;;0.20;0.20;;;11.10;98.10;10.10;102393.00;;;;30955223;28;20085;-78
2021/12/13 00:49:39;;;;;;;0.20;0.20;;;11.10;98.50;10.10;102420.00;;;;30914570;28;20137;-77
2021/12/13 01:05:24;;;;;;;0.30;0.30;;;11.10;98.00;10.10;102430.00;;;;30914788;28;20039;-79
2021/12/13 01:20:44;;;;;;;0.45;0.40;;;11.00;98.00;10.00;102435.00;;;;30914925;28;20534;-79
2021/12/13 01:35:51;;;;;;;0.20;0.20;;;11.00;98.20;10.00;102442.00;;;;30879144;28;20586;-77
2021/12/13 01:51:06;;;;;;;0.20;0.20;;;11.00;98.40;10.10;102450.00;;;;30914862;28;20179;-78
2021/12/13 02:06:07;;;;;;;0.20;0.20;;;10.80;97.80;10.00;102454.00;;;;30905071;28;20085;-78
2021/12/13 02:21:29;;;;;;;0.35;0.35;;;11.00;98.10;9.90;102438.00;;;;30884770;28;20046;-78
2021/12/13 02:36:50;;;;;;;0.10;0.10;;;10.90;97.90;9.80;102443.00;;;;30880446;28;20105;-79
2021/12/13 02:52:02;;;;;;;0.20;0.20;;;10.80;97.50;9.70;102459.00;;;;30912367;28;20418;-79
2021/12/13 03:07:31;;;;;;;0.20;0.20;;;10.60;97.40;9.60;102456.00;;;;30901429;28;20100;-78
2021/12/13 03:23:11;;;;;;;0.10;0.10;;;10.60;97.40;9.50;102446.00;;;;30894257;28;20141;-78
2021/12/13 03:38:45;;;;;;;0.20;0.20;;;10.60;97.30;9.50;102452.00;;;;31036648;28;20407;-78
2021/12/13 03:53:52;;;;;;;0.50;0.50;;;10.60;97.70;9.40;102463.00;;;;31016383;28;20044;-79
2021/12/13 04:08:58;;;;;;;0.88;0.52;;;10.40;97.20;9.40;102463.00;;;;31025102;28;20087;-79
2021/12/13 04:24:05;;;;;;;0.30;0.30;;;10.40;97.20;9.30;102465.00;;;;31047443;28;20077;-79
2021/12/13 04:39:31;;;;;;;0.20;0.20;;;10.50;97.30;9.30;102468.00;;;;31026712;28;20046;-76
2021/12/13 04:54:43;;;;;;;0.20;0.20;;;10.30;97.20;9.20;102469.00;;;;31039176;28;20046;-76
2021/12/13 05:09:48;;;;;;;0.40;0.40;;;10.20;97.00;9.20;102471.00;;;;31034806;28;20065;-76
2021/12/13 05:24:54;;;;;;;0.20;0.20;;;10.20;97.10;9.10;102461.00;;;;31022921;28;21268;-76
2021/12/13 05:40:07;;;;;;;1.95;1.85;;;10.20;97.00;9.10;102473.00;;;;31042011;28;20081;-76
2021/12/13 05:55:15;;;;;;;0.20;0.20;;;10.20;96.90;9.10;102473.00;;;;31021696;28;20136;-77
2021/12/13 06:10:21;;;;;;;0.20;0.20;;;10.10;96.80;9.10;102488.00;;;;31016334;28;20046;-77
2021/12/13 06:25:24;;;;;;;0.10;0.10;;;10.60;96.90;9.00;102484.00;;;;31024917;28;20049;-78
2021/12/13 06:40:29;;;;;;;0.20;0.20;;;11.20;97.40;9.00;102506.00;;;;31034943;28;20092;-76
2021/12/13 06:55:30;;;;;;;;;;;10.00;97.10;9.00;102506.00;;;;31035671;28;20034;-77
2021/12/13 07:18:30;;;;;;;0.30;0.30;;;10.00;96.50;9.00;102529.00;;;;31508852;27;1327842;-78
2021/12/13 07:33:42;;;;;;;0.20;0.20;;;10.00;96.50;8.90;102534.00;;;;31311642;28;20245;-77
2021/12/13 07:48:51;;;;;;;0.30;0.30;;;9.90;96.50;8.90;102549.00;;;;31223880;28;20061;-76
2021/12/13 08:04:18;;;;;;;0.40;0.40;;;9.90;96.40;8.90;102557.00;;;;31226715;28;20058;-77
2021/12/13 08:19:25;;;;;;;2.17;1.98;;;9.90;96.30;8.90;102567.00;;;;31178224;28;20049;-79
2021/12/13 12:01:14;;;;;;;0.20;0.20;;;10.40;94.50;9.30;102602.00;;;;30877652;28;20089;-94
2021/12/13 12:16:22;;;;;;;0.20;0.20;;;10.40;95.00;9.30;102588.00;;;;30426620;28;20149;-73
2021/12/13 12:31:43;;;;;;;0.10;0.10;;;10.30;95.30;9.30;102587.00;;;;30405560;29;20049;-74
2021/12/13 12:46:45;;;;;;;0.20;0.20;;;10.30;94.60;9.40;102589.00;;;;30396862;29;20516;-73
2021/12/13 13:01:59;;;;;;;0.40;0.40;;;10.40;94.40;9.40;102590.00;;;;30391786;29;20060;-73
2021/12/13 13:17:06;;;;;;;0.20;0.20;;;10.40;94.10;9.40;102596.00;;;;30442538;29;20041;-72
2021/12/13 13:32:13;;;;;;;0.43;0.43;;;10.40;94.10;9.40;102593.00;;;;30405578;29;20062;-74
2021/12/13 13:47:27;;;;;;;0.30;0.30;;;10.40;94.40;9.40;102599.00;;;;30349531;29;20061;-72
2021/12/13 14:02:34;;;;;;;0.20;0.20;;;10.30;94.20;9.30;102593.00;;;;30355505;29;20611;-72
2021/12/13 14:17:55;;;;;;;0.20;0.20;;;10.20;93.90;9.20;102596.00;;;;30445647;28;20083;-73
2021/12/13 14:32:57;;;;;;;0.22;0.22;;;10.20;94.10;9.20;102607.00;;;;30445032;29;20049;-73
2021/12/13 14:47:59;;;;;;;0.63;0.63;;;10.20;94.50;9.10;102598.00;;;;30382592;29;20049;-73
2021/12/13 15:03:20;;;;;;;0.10;0.10;;;10.40;94.30;9.10;102596.00;;;;30335843;29;20060;-73
2021/12/13 15:18:42;;;;;;;0.10;0.10;;;10.10;94.10;9.00;102609.00;;;;30474718;29;20631;-73
2021/12/13 15:33:46;;;;;;;0.10;0.10;;;10.00;94.10;9.00;102607.00;;;;30348739;29;20115;-73
2021/12/13 16:04:27;;;;;;;0.20;0.20;;;10.00;94.00;8.90;102609.00;;;;30422821;29;20211;-74
2021/12/13 16:19:40;;;;;;;0.10;0.10;;;9.90;94.00;8.80;102606.00;;;;30466342;29;20060;-73
2021/12/13 16:34:41;;;;;;;0.25;0.25;;;9.90;94.40;8.80;102605.00;;;;30457611;29;20667;-74
2021/12/13 16:49:49;;;;;;;0.10;0.10;;;10.00;94.40;8.80;102601.00;;;;30481388;29;20044;-75
2021/12/13 17:04:58;;;;;;;0.30;0.30;;;9.80;93.70;8.80;102603.00;;;;30452155;29;20504;-75
2021/12/13 17:20:01;;;;;;;0.20;0.20;;;9.90;93.60;8.80;102604.00;;;;30450028;29;20674;-75
2021/12/13 17:35:54;;;;;;;0.20;0.20;;;9.80;94.20;8.70;102623.00;;;;30448685;29;20059;-74
2021/12/13 17:51:21;;;;;;;0.20;0.20;;;9.80;94.00;8.70;102606.00;;;;30453733;29;20091;-74
2021/12/13 18:06:26;;;;;;;0.20;0.20;;;9.80;93.40;8.70;102603.00;;;;30435513;29;20044;-74
2021/12/13 18:21:38;;;;;;;0.20;0.20;;;9.70;93.20;8.70;102607.00;;;;30408100;29;20147;-74
2021/12/13 18:36:57;;;;;;;0.30;0.30;;;9.70;93.60;8.70;102593.00;;;;30437203;29;20044;-74
2021/12/13 18:52:03;;;;;;;0.20;0.20;;;9.70;93.50;8.70;102600.00;;;;30409958;29;20126;-75
2021/12/13 19:07:28;;;;;;;0.20;0.20;;;9.70;93.00;8.60;102600.00;;;;30432734;29;20115;-75
2021/12/13 19:22:38;;;;;;;0.30;0.30;;;9.60;92.40;8.50;102585.00;;;;30441388;29;20052;-75
2021/12/13 19:37:46;;;;;;;0.20;0.20;;;9.60;92.60;8.50;102606.00;;;;30426302;29;20063;-75
2021/12/13 19:53:12;;;;;;;0.35;0.35;;;9.50;92.20;8.50;102596.00;;;;30414435;29;20056;-75
2021/12/13 20:08:29;;;;;;;0.68;0.68;;;9.50;92.20;8.50;102615.00;;;;30417571;29;20063;-74
2021/12/13 20:24:00;;;;;;;0.20;0.20;;;10.30;92.30;8.40;102592.00;;;;30441327;29;20048;-75
2021/12/13 20:39:36;;;;;;;0.20;0.20;;;9.50;92.50;8.40;102598.00;;;;30408280;29;20059;-76
2021/12/13 20:54:46;;;;;;;0.20;0.20;;;9.40;92.10;8.40;102596.00;;;;30424967;29;20090;-75
2021/12/13 21:09:56;;;;;;;0.38;0.38;;;9.40;92.70;8.30;102571.00;;;;30418494;29;20044;-74
2021/12/13 21:25:36;;;;;;;0.28;0.28;;;9.40;92.30;8.30;102560.00;;;;30446660;29;20056;-74
2021/12/13 21:40:49;;;;;;;0.20;0.20;;;9.40;92.60;8.30;102544.00;;;;30436686;29;20056;-74
2021/12/13 21:56:21;;;;;;;0.20;0.20;;;9.30;92.30;8.30;102581.00;;;;30438736;29;20062;-73
2021/12/13 22:11:38;;;;;;;0.20;0.20;;;9.30;92.80;8.30;102588.00;;;;30406271;28;20520;-74
2021/12/13 22:26:48;;;;;;;0.35;0.35;;;9.30;92.50;8.30;102595.00;;;;30417478;29;21030;-74
2021/12/13 22:42:03;;;;;;;2.15;1.38;;;9.40;92.60;8.30;102615.00;;;;30427588;29;20045;-74
2021/12/13 22:58:02;;;;;;;0.20;0.20;;;9.30;92.70;8.30;102606.00;;;;30419756;29;20090;-74
2021/12/13 23:29:22;;;;;;;0.20;0.20;;;9.30;93.20;8.20;102581.00;;;;30321039;29;20053;-74
2021/12/13 23:59:57;;;;;;;0.20;0.20;;;9.20;93.10;8.10;102576.00;;;;30411712;29;20144;-74
